sensor_id;sensor_type;location;lat;lon;timestamp;P1;durP1;ratioP1;P2;durP2;ratioP2
62556;SDS011;48612;50.742;-1.226;2022-09-20T00:03:54;4.07;;;2.70;;
62556;SDS011;48612;50.742;-1.226;2022-09-20T00:06:23;4.78;;;2.60;;
62556;SDS011;48612;50.742;-1.226;2022-09-20T00:08:51;4.07;;;2.38;;
62556;SDS011;48612;50.742;-1.226;2022-09-20T00:11:18;3.33;;;2.50;;
62556;SDS011;48612;50.742;-1.226;2022-09-20T00:13:49;5.40;;;2.60;;
62556;SDS011;48612;50.742;-1.226;2022-09-20T00:16:18;4.70;;;2.30;;
62556;SDS011;48612;50.742;-1.226;2022-09-20T00:18:47;3.40;;;2.53;;
62556;SDS011;48612;50.742;-1.226;2022-09-20T00:21:17;3.35;;;2.53;;
62556;SDS011;48612;50.742;-1.226;2022-09-20T00:23:45;4.45;;;2.50;;
62556;SDS011;48612;50.742;-1.226;2022-09-20T00:26:10;4.45;;;2.60;;
62556;SDS011;48612;50.742;-1.226;2022-09-20T00:28:38;3.53;;;2.25;;
62556;SDS011;48612;50.742;-1.226;2022-09-20T00:31:04;4.57;;;2.53;;
62556;SDS011;48612;50.742;-1.226;2022-09-20T00:33:32;4.35;;;2.70;;
62556;SDS011;48612;50.742;-1.226;2022-09-20T00:36:17;5.35;;;2.60;;
62556;SDS011;48612;50.742;-1.226;2022-09-20T00:38:42;4.00;;;2.55;;
62556;SDS011;48612;50.742;-1.226;2022-09-20T00:41:08;3.95;;;2.67;;
62556;SDS011;48612;50.742;-1.226;2022-09-20T00:43:38;5.25;;;3.03;;
62556;SDS011;48612;50.742;-1.226;2022-09-20T00:46:08;3.65;;;2.70;;
62556;SDS011;48612;50.742;-1.226;2022-09-20T00:48:46;5.00;;;2.88;;
62556;SDS011;48612;50.742;-1.226;2022-09-20T00:51:15;6.43;;;2.90;;
62556;SDS011;48612;50.742;-1.226;2022-09-20T00:53:46;5.53;;;2.80;;
62556;SDS011;48612;50.742;-1.226;2022-09-20T00:56:16;3.67;;;2.90;;
62556;SDS011;48612;50.742;-1.226;2022-09-20T00:58:48;7.15;;;3.53;;
62556;SDS011;48612;50.742;-1.226;2022-09-20T01:01:18;7.18;;;3.30;;
62556;SDS011;48612;50.742;-1.226;2022-09-20T01:03:44;4.10;;;2.70;;
62556;SDS011;48612;50.742;-1.226;2022-09-20T01:06:12;5.90;;;2.88;;
62556;SDS011;48612;50.742;-1.226;2022-09-20T01:08:41;4.72;;;2.58;;
62556;SDS011;48612;50.742;-1.226;2022-09-20T01:11:11;4.78;;;2.83;;
62556;SDS011;48612;50.742;-1.226;2022-09-20T01:13:37;3.58;;;2.70;;
62556;SDS011;48612;50.742;-1.226;2022-09-20T01:16:02;4.03;;;2.90;;
62556;SDS011;48612;50.742;-1.226;2022-09-20T01:18:29;5.00;;;2.83;;
62556;SDS011;48612;50.742;-1.226;2022-09-20T01:20:57;3.95;;;2.80;;
62556;SDS011;48612;50.742;-1.226;2022-09-20T01:31:33;4.57;;;3.03;;
62556;SDS011;48612;50.742;-1.226;2022-09-20T01:34:17;5.65;;;3.22;;
62556;SDS011;48612;50.742;-1.226;2022-09-20T01:37:10;4.38;;;2.92;;
62556;SDS011;48612;50.742;-1.226;2022-09-20T01:39:53;5.90;;;3.13;;
62556;SDS011;48612;50.742;-1.226;2022-09-20T01:42:32;5.97;;;3.20;;
62556;SDS011;48612;50.742;-1.226;2022-09-20T02:00:04;5.75;;;2.95;;
62556;SDS011;48612;50.742;-1.226;2022-09-20T02:02:40;7.90;;;3.33;;
62556;SDS011;48612;50.742;-1.226;2022-09-20T02:24:49;6.82;;;2.80;;
62556;SDS011;48612;50.742;-1.226;2022-09-20T02:39:36;11.90;;;3.03;;
62556;SDS011;48612;50.742;-1.226;2022-09-20T02:42:28;5.07;;;2.58;;
62556;SDS011;48612;50.742;-1.226;2022-09-20T02:48:03;4.88;;;3.00;;
62556;SDS011;48612;50.742;-1.226;2022-09-20T02:58:38;7.40;;;3.20;;
62556;SDS011;48612;50.742;-1.226;2022-09-20T03:06:42;8.98;;;3.05;;
62556;SDS011;48612;50.742;-1.226;2022-09-20T03:09:43;7.57;;;3.35;;
62556;SDS011;48612;50.742;-1.226;2022-09-20T03:21:09;6.35;;;3.38;;
62556;SDS011;48612;50.742;-1.226;2022-09-20T03:29:14;5.05;;;3.40;;
62556;SDS011;48612;50.742;-1.226;2022-09-20T03:31:54;5.82;;;4.03;;
62556;SDS011;48612;50.742;-1.226;2022-09-20T03:34:32;7.38;;;4.28;;
62556;SDS011;48612;50.742;-1.226;2022-09-20T03:42:30;9.93;;;3.85;;
62556;SDS011;48612;50.742;-1.226;2022-09-20T03:45:13;6.47;;;3.80;;
62556;SDS011;48612;50.742;-1.226;2022-09-20T03:48:04;6.78;;;4.35;;
62556;SDS011;48612;50.742;-1.226;2022-09-20T03:53:50;8.85;;;4.38;;
62556;SDS011;48612;50.742;-1.226;2022-09-20T03:59:29;6.97;;;4.18;;
62556;SDS011;48612;50.742;-1.226;2022-09-20T04:21:07;9.40;;;5.68;;
62556;SDS011;48612;50.742;-1.226;2022-09-20T04:26:29;8.07;;;5.18;;
62556;SDS011;48612;50.742;-1.226;2022-09-20T04:35:03;7.15;;;4.38;;
62556;SDS011;48612;50.742;-1.226;2022-09-20T04:38:11;8.20;;;4.97;;
62556;SDS011;48612;50.742;-1.226;2022-09-20T04:49:25;10.05;;;4.82;;
62556;SDS011;48612;50.742;-1.226;2022-09-20T05:03:39;7.57;;;5.07;;
62556;SDS011;48612;50.742;-1.226;2022-09-20T05:17:44;8.25;;;5.43;;
62556;SDS011;48612;50.742;-1.226;2022-09-20T05:47:25;13.05;;;8.15;;
62556;SDS011;48612;50.742;-1.226;2022-09-20T06:20:59;17.85;;;9.48;;
62556;SDS011;48612;50.742;-1.226;2022-09-20T06:23:29;15.02;;;8.65;;
62556;SDS011;48612;50.742;-1.226;2022-09-20T06:25:56;13.25;;;8.10;;
62556;SDS011;48612;50.742;-1.226;2022-09-20T06:28:38;17.75;;;8.75;;
62556;SDS011;48612;50.742;-1.226;2022-09-20T06:31:19;14.15;;;8.85;;
62556;SDS011;48612;50.742;-1.226;2022-09-20T06:36:24;11.60;;;7.15;;
62556;SDS011;48612;50.742;-1.226;2022-09-20T06:42:50;10.63;;;6.63;;
62556;SDS011;48612;50.742;-1.226;2022-09-20T06:45:17;11.90;;;7.03;;
62556;SDS011;48612;50.742;-1.226;2022-09-20T06:47:43;12.15;;;6.97;;
62556;SDS011;48612;50.742;-1.226;2022-09-20T06:50:13;12.98;;;7.07;;
62556;SDS011;48612;50.742;-1.226;2022-09-20T06:52:41;11.32;;;6.63;;
62556;SDS011;48612;50.742;-1.226;2022-09-20T06:55:09;11.07;;;6.07;;
62556;SDS011;48612;50.742;-1.226;2022-09-20T06:57:42;11.43;;;6.38;;
62556;SDS011;48612;50.742;-1.226;2022-09-20T07:00:12;10.13;;;5.47;;
62556;SDS011;48612;50.742;-1.226;2022-09-20T07:02:40;7.78;;;4.82;;
62556;SDS011;48612;50.742;-1.226;2022-09-20T07:05:12;10.90;;;5.57;;
62556;SDS011;48612;50.742;-1.226;2022-09-20T07:07:39;11.18;;;6.00;;
62556;SDS011;48612;50.742;-1.226;2022-09-20T07:10:04;9.02;;;6.13;;
62556;SDS011;48612;50.742;-1.226;2022-09-20T07:12:30;10.07;;;6.05;;
62556;SDS011;48612;50.742;-1.226;2022-09-20T07:14:58;12.68;;;5.95;;
62556;SDS011;48612;50.742;-1.226;2022-09-20T07:17:23;9.10;;;6.22;;
62556;SDS011;48612;50.742;-1.226;2022-09-20T07:19:49;9.45;;;6.13;;
62556;SDS011;48612;50.742;-1.226;2022-09-20T07:22:15;10.32;;;6.35;;
62556;SDS011;48612;50.742;-1.226;2022-09-20T07:24:41;8.73;;;5.60;;
62556;SDS011;48612;50.742;-1.226;2022-09-20T07:27:09;10.23;;;5.50;;
62556;SDS011;48612;50.742;-1.226;2022-09-20T07:29:36;8.30;;;5.47;;
62556;SDS011;48612;50.742;-1.226;2022-09-20T07:32:02;10.93;;;5.25;;
62556;SDS011;48612;50.742;-1.226;2022-09-20T07:34:27;10.15;;;5.97;;
62556;SDS011;48612;50.742;-1.226;2022-09-20T07:36:53;9.40;;;5.32;;
62556;SDS011;48612;50.742;-1.226;2022-09-20T07:39:23;13.85;;;6.57;;
62556;SDS011;48612;50.742;-1.226;2022-09-20T07:41:49;6.95;;;4.63;;
62556;SDS011;48612;50.742;-1.226;2022-09-20T07:44:15;9.75;;;5.28;;
62556;SDS011;48612;50.742;-1.226;2022-09-20T07:46:57;8.77;;;5.53;;
62556;SDS011;48612;50.742;-1.226;2022-09-20T07:49:28;11.77;;;5.35;;
62556;SDS011;48612;50.742;-1.226;2022-09-20T07:51:54;9.10;;;5.18;;
62556;SDS011;48612;50.742;-1.226;2022-09-20T07:54:22;9.63;;;5.70;;
62556;SDS011;48612;50.742;-1.226;2022-09-20T07:56:48;8.10;;;4.90;;
62556;SDS011;48612;50.742;-1.226;2022-09-20T07:59:14;7.72;;;4.50;;
62556;SDS011;48612;50.742;-1.226;2022-09-20T08:01:40;12.80;;;5.70;;
62556;SDS011;48612;50.742;-1.226;2022-09-20T08:04:07;6.35;;;4.70;;
62556;SDS011;48612;50.742;-1.226;2022-09-20T08:06:37;6.88;;;4.30;;
62556;SDS011;48612;50.742;-1.226;2022-09-20T08:09:04;5.65;;;3.60;;
62556;SDS011;48612;50.742;-1.226;2022-09-20T08:11:30;6.97;;;3.75;;
62556;SDS011;48612;50.742;-1.226;2022-09-20T08:13:57;5.70;;;3.38;;
62556;SDS011;48612;50.742;-1.226;2022-09-20T08:16:24;7.63;;;3.08;;
62556;SDS011;48612;50.742;-1.226;2022-09-20T08:18:55;4.95;;;3.22;;
62556;SDS011;48612;50.742;-1.226;2022-09-20T08:21:27;6.00;;;3.08;;
62556;SDS011;48612;50.742;-1.226;2022-09-20T08:23:56;6.78;;;3.83;;
62556;SDS011;48612;50.742;-1.226;2022-09-20T08:26:22;5.13;;;3.30;;
62556;SDS011;48612;50.742;-1.226;2022-09-20T08:28:51;6.28;;;3.50;;
62556;SDS011;48612;50.742;-1.226;2022-09-20T08:31:20;5.57;;;3.30;;
62556;SDS011;48612;50.742;-1.226;2022-09-20T08:33:48;5.65;;;3.30;;
62556;SDS011;48612;50.742;-1.226;2022-09-20T08:36:16;4.80;;;3.20;;
62556;SDS011;48612;50.742;-1.226;2022-09-20T08:38:43;5.20;;;3.08;;
62556;SDS011;48612;50.742;-1.226;2022-09-20T08:41:13;8.10;;;3.63;;
62556;SDS011;48612;50.742;-1.226;2022-09-20T08:49:03;8.18;;;3.28;;
62556;SDS011;48612;50.742;-1.226;2022-09-20T08:51:33;4.57;;;3.00;;
62556;SDS011;48612;50.742;-1.226;2022-09-20T08:54:02;5.40;;;3.40;;
62556;SDS011;48612;50.742;-1.226;2022-09-20T08:56:33;5.38;;;2.90;;
62556;SDS011;48612;50.742;-1.226;2022-09-20T08:59:04;4.88;;;2.58;;
62556;SDS011;48612;50.742;-1.226;2022-09-20T09:01:48;4.70;;;2.50;;
62556;SDS011;48612;50.742;-1.226;2022-09-20T09:04:16;6.32;;;3.00;;
62556;SDS011;48612;50.742;-1.226;2022-09-20T09:06:47;6.82;;;2.90;;
62556;SDS011;48612;50.742;-1.226;2022-09-20T09:09:22;8.18;;;3.50;;
62556;SDS011;48612;50.742;-1.226;2022-09-20T09:11:52;9.23;;;3.08;;
62556;SDS011;48612;50.742;-1.226;2022-09-20T09:14:34;5.30;;;2.92;;
62556;SDS011;48612;50.742;-1.226;2022-09-20T09:17:13;6.40;;;3.25;;
62556;SDS011;48612;50.742;-1.226;2022-09-20T09:19:42;9.35;;;3.35;;
62556;SDS011;48612;50.742;-1.226;2022-09-20T09:22:23;8.20;;;3.20;;
62556;SDS011;48612;50.742;-1.226;2022-09-20T09:25:22;5.30;;;2.90;;
62556;SDS011;48612;50.742;-1.226;2022-09-20T09:27:57;5.68;;;3.58;;
62556;SDS011;48612;50.742;-1.226;2022-09-20T09:30:46;7.78;;;3.33;;
62556;SDS011;48612;50.742;-1.226;2022-09-20T09:35:45;5.32;;;3.00;;
62556;SDS011;48612;50.742;-1.226;2022-09-20T09:38:18;4.80;;;3.00;;
62556;SDS011;48612;50.742;-1.226;2022-09-20T09:40:49;6.55;;;2.92;;
62556;SDS011;48612;50.742;-1.226;2022-09-20T09:43:27;8.73;;;3.67;;
62556;SDS011;48612;50.742;-1.226;2022-09-20T09:46:30;7.13;;;3.00;;
62556;SDS011;48612;50.742;-1.226;2022-09-20T09:54:26;7.53;;;3.88;;
62556;SDS011;48612;50.742;-1.226;2022-09-20T10:03:50;9.32;;;4.00;;
62556;SDS011;48612;50.742;-1.226;2022-09-20T10:06:05;6.85;;;3.40;;
62556;SDS011;48612;50.742;-1.226;2022-09-20T10:11:47;5.25;;;3.70;;
62556;SDS011;48612;50.742;-1.226;2022-09-20T10:14:18;8.15;;;4.55;;
62556;SDS011;48612;50.742;-1.226;2022-09-20T10:22:06;7.90;;;4.18;;
62556;SDS011;48612;50.742;-1.226;2022-09-20T10:28:19;18.75;;;4.10;;
62556;SDS011;48612;50.742;-1.226;2022-09-20T10:30:46;6.85;;;3.65;;
62556;SDS011;48612;50.742;-1.226;2022-09-20T10:37:10;4.65;;;3.35;;
62556;SDS011;48612;50.742;-1.226;2022-09-20T10:39:18;10.65;;;4.07;;
62556;SDS011;48612;50.742;-1.226;2022-09-20T10:45:18;6.03;;;3.30;;
62556;SDS011;48612;50.742;-1.226;2022-09-20T10:48:26;5.32;;;3.15;;
62556;SDS011;48612;50.742;-1.226;2022-09-20T10:51:29;6.82;;;3.10;;
62556;SDS011;48612;50.742;-1.226;2022-09-20T11:00:57;7.45;;;2.92;;
62556;SDS011;48612;50.742;-1.226;2022-09-20T11:06:31;6.50;;;2.40;;
62556;SDS011;48612;50.742;-1.226;2022-09-20T11:09:35;3.67;;;2.60;;
62556;SDS011;48612;50.742;-1.226;2022-09-20T11:14:55;4.47;;;2.70;;
62556;SDS011;48612;50.742;-1.226;2022-09-20T11:17:40;3.83;;;2.88;;
62556;SDS011;48612;50.742;-1.226;2022-09-20T11:20:26;5.70;;;2.45;;
62556;SDS011;48612;50.742;-1.226;2022-09-20T11:23:03;5.80;;;2.55;;
62556;SDS011;48612;50.742;-1.226;2022-09-20T11:25:55;5.13;;;2.80;;
62556;SDS011;48612;50.742;-1.226;2022-09-20T11:33:53;2.63;;;2.30;;
62556;SDS011;48612;50.742;-1.226;2022-09-20T11:36:45;3.42;;;2.45;;
62556;SDS011;48612;50.742;-1.226;2022-09-20T11:39:24;3.97;;;2.40;;
62556;SDS011;48612;50.742;-1.226;2022-09-20T11:41:57;4.10;;;2.53;;
62556;SDS011;48612;50.742;-1.226;2022-09-20T11:44:26;3.13;;;2.30;;
62556;SDS011;48612;50.742;-1.226;2022-09-20T11:47:25;4.43;;;2.40;;
62556;SDS011;48612;50.742;-1.226;2022-09-20T11:56:11;3.50;;;2.30;;
62556;SDS011;48612;50.742;-1.226;2022-09-20T11:58:45;4.45;;;2.65;;
62556;SDS011;48612;50.742;-1.226;2022-09-20T12:01:28;4.63;;;2.60;;
62556;SDS011;48612;50.742;-1.226;2022-09-20T12:06:56;4.00;;;2.17;;
62556;SDS011;48612;50.742;-1.226;2022-09-20T12:09:53;4.18;;;2.38;;
62556;SDS011;48612;50.742;-1.226;2022-09-20T12:26:04;3.22;;;2.10;;
62556;SDS011;48612;50.742;-1.226;2022-09-20T12:28:49;5.53;;;2.38;;
62556;SDS011;48612;50.742;-1.226;2022-09-20T12:31:36;3.50;;;2.30;;
62556;SDS011;48612;50.742;-1.226;2022-09-20T12:39:26;2.63;;;1.95;;
62556;SDS011;48612;50.742;-1.226;2022-09-20T12:44:39;3.97;;;1.90;;
62556;SDS011;48612;50.742;-1.226;2022-09-20T12:47:19;2.10;;;1.85;;
62556;SDS011;48612;50.742;-1.226;2022-09-20T12:50:13;1.80;;;1.60;;
62556;SDS011;48612;50.742;-1.226;2022-09-20T12:53:02;2.45;;;2.00;;
62556;SDS011;48612;50.742;-1.226;2022-09-20T13:08:48;1.73;;;1.60;;
62556;SDS011;48612;50.742;-1.226;2022-09-20T13:14:25;4.45;;;1.65;;
62556;SDS011;48612;50.742;-1.226;2022-09-20T13:16:56;2.90;;;1.77;;
62556;SDS011;48612;50.742;-1.226;2022-09-20T13:19:51;1.30;;;1.20;;
62556;SDS011;48612;50.742;-1.226;2022-09-20T13:22:21;2.00;;;1.77;;
62556;SDS011;48612;50.742;-1.226;2022-09-20T13:24:51;1.60;;;1.50;;
62556;SDS011;48612;50.742;-1.226;2022-09-20T13:27:21;1.70;;;1.60;;
62556;SDS011;48612;50.742;-1.226;2022-09-20T13:30:15;2.50;;;1.75;;
62556;SDS011;48612;50.742;-1.226;2022-09-20T13:32:44;2.08;;;1.70;;
62556;SDS011;48612;50.742;-1.226;2022-09-20T13:43:28;5.43;;;1.83;;
62556;SDS011;48612;50.742;-1.226;2022-09-20T13:45:58;1.63;;;1.25;;
62556;SDS011;48612;50.742;-1.226;2022-09-20T13:48:36;2.67;;;1.45;;
62556;SDS011;48612;50.742;-1.226;2022-09-20T13:51:02;2.38;;;1.80;;
62556;SDS011;48612;50.742;-1.226;2022-09-20T13:53:28;1.70;;;1.60;;
62556;SDS011;48612;50.742;-1.226;2022-09-20T13:55:54;3.20;;;1.90;;
62556;SDS011;48612;50.742;-1.226;2022-09-20T14:00:58;2.17;;;1.70;;
62556;SDS011;48612;50.742;-1.226;2022-09-20T14:03:31;2.22;;;1.60;;
62556;SDS011;48612;50.742;-1.226;2022-09-20T14:05:59;2.67;;;1.52;;
62556;SDS011;48612;50.742;-1.226;2022-09-20T14:08:49;1.65;;;1.48;;
62556;SDS011;48612;50.742;-1.226;2022-09-20T14:11:16;2.28;;;1.60;;
62556;SDS011;48612;50.742;-1.226;2022-09-20T14:13:46;3.30;;;1.85;;
62556;SDS011;48612;50.742;-1.226;2022-09-20T14:16:16;4.28;;;2.00;;
62556;SDS011;48612;50.742;-1.226;2022-09-20T14:18:43;4.10;;;2.08;;
62556;SDS011;48612;50.742;-1.226;2022-09-20T14:21:12;2.53;;;1.77;;
62556;SDS011;48612;50.742;-1.226;2022-09-20T14:23:58;2.78;;;1.75;;
62556;SDS011;48612;50.742;-1.226;2022-09-20T14:26:40;1.63;;;1.17;;
62556;SDS011;48612;50.742;-1.226;2022-09-20T14:32:09;3.03;;;1.92;;
62556;SDS011;48612;50.742;-1.226;2022-09-20T14:34:49;4.97;;;1.42;;
62556;SDS011;48612;50.742;-1.226;2022-09-20T14:39:48;1.30;;;1.20;;
62556;SDS011;48612;50.742;-1.226;2022-09-20T14:42:28;1.75;;;1.65;;
62556;SDS011;48612;50.742;-1.226;2022-09-20T14:48:37;1.83;;;1.67;;
62556;SDS011;48612;50.742;-1.226;2022-09-20T14:50:43;1.70;;;1.50;;
62556;SDS011;48612;50.742;-1.226;2022-09-20T14:53:29;2.17;;;1.65;;
62556;SDS011;48612;50.742;-1.226;2022-09-20T14:55:57;2.70;;;1.55;;
62556;SDS011;48612;50.742;-1.226;2022-09-20T14:58:28;1.52;;;1.38;;
62556;SDS011;48612;50.742;-1.226;2022-09-20T15:01:03;1.48;;;1.33;;
62556;SDS011;48612;50.742;-1.226;2022-09-20T15:03:50;3.45;;;1.60;;
62556;SDS011;48612;50.742;-1.226;2022-09-20T15:06:26;3.60;;;1.52;;
62556;SDS011;48612;50.742;-1.226;2022-09-20T15:09:13;4.35;;;2.33;;
62556;SDS011;48612;50.742;-1.226;2022-09-20T15:11:43;4.10;;;1.90;;
62556;SDS011;48612;50.742;-1.226;2022-09-20T15:14:09;6.03;;;2.42;;
62556;SDS011;48612;50.742;-1.226;2022-09-20T15:16:35;2.35;;;2.00;;
62556;SDS011;48612;50.742;-1.226;2022-09-20T15:19:00;3.80;;;2.20;;
62556;SDS011;48612;50.742;-1.226;2022-09-20T15:21:26;2.85;;;2.10;;
62556;SDS011;48612;50.742;-1.226;2022-09-20T15:23:52;3.55;;;2.20;;
62556;SDS011;48612;50.742;-1.226;2022-09-20T15:26:21;2.42;;;2.00;;
62556;SDS011;48612;50.742;-1.226;2022-09-20T15:28:46;2.08;;;1.80;;
62556;SDS011;48612;50.742;-1.226;2022-09-20T15:31:14;3.80;;;2.00;;
62556;SDS011;48612;50.742;-1.226;2022-09-20T15:33:41;3.65;;;2.20;;
62556;SDS011;48612;50.742;-1.226;2022-09-20T15:36:07;1.88;;;1.63;;
62556;SDS011;48612;50.742;-1.226;2022-09-20T15:38:33;4.97;;;1.90;;
62556;SDS011;48612;50.742;-1.226;2022-09-20T15:41:00;2.67;;;1.77;;
62556;SDS011;48612;50.742;-1.226;2022-09-20T15:43:30;1.90;;;1.77;;
62556;SDS011;48612;50.742;-1.226;2022-09-20T15:45:57;2.38;;;1.67;;
62556;SDS011;48612;50.742;-1.226;2022-09-20T15:48:28;2.10;;;1.85;;
62556;SDS011;48612;50.742;-1.226;2022-09-20T15:53:34;2.55;;;1.58;;
62556;SDS011;48612;50.742;-1.226;2022-09-20T15:56:24;3.42;;;2.40;;
62556;SDS011;48612;50.742;-1.226;2022-09-20T15:59:02;4.40;;;2.15;;
62556;SDS011;48612;50.742;-1.226;2022-09-20T16:01:30;4.95;;;1.90;;
62556;SDS011;48612;50.742;-1.226;2022-09-20T16:04:05;3.83;;;2.33;;
62556;SDS011;48612;50.742;-1.226;2022-09-20T16:06:35;4.85;;;2.40;;
62556;SDS011;48612;50.742;-1.226;2022-09-20T16:09:02;3.60;;;2.60;;
62556;SDS011;48612;50.742;-1.226;2022-09-20T16:11:28;3.90;;;2.00;;
62556;SDS011;48612;50.742;-1.226;2022-09-20T16:13:57;3.67;;;2.00;;
62556;SDS011;48612;50.742;-1.226;2022-09-20T16:16:24;4.35;;;2.17;;
62556;SDS011;48612;50.742;-1.226;2022-09-20T16:18:51;3.03;;;2.22;;
62556;SDS011;48612;50.742;-1.226;2022-09-20T16:21:36;4.05;;;2.53;;
62556;SDS011;48612;50.742;-1.226;2022-09-20T16:24:17;3.45;;;2.15;;
62556;SDS011;48612;50.742;-1.226;2022-09-20T16:26:51;3.47;;;2.13;;
62556;SDS011;48612;50.742;-1.226;2022-09-20T16:29:17;3.40;;;1.95;;
62556;SDS011;48612;50.742;-1.226;2022-09-20T16:31:47;3.40;;;1.95;;
62556;SDS011;48612;50.742;-1.226;2022-09-20T16:34:15;4.70;;;2.33;;
62556;SDS011;48612;50.742;-1.226;2022-09-20T16:37:05;3.30;;;2.13;;
62556;SDS011;48612;50.742;-1.226;2022-09-20T16:39:39;3.38;;;2.00;;
62556;SDS011;48612;50.742;-1.226;2022-09-20T16:42:06;2.72;;;2.00;;
62556;SDS011;48612;50.742;-1.226;2022-09-20T16:44:51;4.35;;;1.70;;
62556;SDS011;48612;50.742;-1.226;2022-09-20T16:47:17;2.90;;;1.83;;
62556;SDS011;48612;50.742;-1.226;2022-09-20T16:49:50;2.38;;;2.00;;
62556;SDS011;48612;50.742;-1.226;2022-09-20T16:52:17;1.90;;;1.70;;
62556;SDS011;48612;50.742;-1.226;2022-09-20T16:54:43;1.77;;;1.60;;
62556;SDS011;48612;50.742;-1.226;2022-09-20T16:57:09;2.63;;;1.90;;
62556;SDS011;48612;50.742;-1.226;2022-09-20T16:59:34;1.90;;;1.70;;
62556;SDS011;48612;50.742;-1.226;2022-09-20T17:02:03;2.50;;;1.92;;
62556;SDS011;48612;50.742;-1.226;2022-09-20T17:04:28;3.50;;;1.77;;
62556;SDS011;48612;50.742;-1.226;2022-09-20T17:06:54;3.42;;;1.98;;
62556;SDS011;48612;50.742;-1.226;2022-09-20T17:09:19;2.05;;;1.73;;
62556;SDS011;48612;50.742;-1.226;2022-09-20T17:11:46;2.22;;;1.90;;
62556;SDS011;48612;50.742;-1.226;2022-09-20T17:14:17;3.85;;;1.83;;
62556;SDS011;48612;50.742;-1.226;2022-09-20T17:16:44;8.68;;;2.00;;
62556;SDS011;48612;50.742;-1.226;2022-09-20T17:19:15;1.98;;;1.77;;
62556;SDS011;48612;50.742;-1.226;2022-09-20T17:21:43;4.47;;;2.05;;
62556;SDS011;48612;50.742;-1.226;2022-09-20T17:24:13;1.85;;;1.65;;
62556;SDS011;48612;50.742;-1.226;2022-09-20T17:26:39;2.33;;;1.77;;
62556;SDS011;48612;50.742;-1.226;2022-09-20T17:29:08;2.78;;;1.88;;
62556;SDS011;48612;50.742;-1.226;2022-09-20T17:31:49;2.88;;;1.70;;
62556;SDS011;48612;50.742;-1.226;2022-09-20T17:34:16;4.50;;;2.00;;
62556;SDS011;48612;50.742;-1.226;2022-09-20T17:36:45;2.05;;;1.80;;
62556;SDS011;48612;50.742;-1.226;2022-09-20T17:39:11;3.83;;;2.08;;
62556;SDS011;48612;50.742;-1.226;2022-09-20T17:41:38;3.95;;;2.10;;
62556;SDS011;48612;50.742;-1.226;2022-09-20T17:44:08;1.80;;;1.55;;
62556;SDS011;48612;50.742;-1.226;2022-09-20T17:46:38;4.07;;;1.80;;
62556;SDS011;48612;50.742;-1.226;2022-09-20T17:49:05;2.72;;;1.70;;
62556;SDS011;48612;50.742;-1.226;2022-09-20T17:51:35;2.58;;;2.30;;
62556;SDS011;48612;50.742;-1.226;2022-09-20T17:54:02;5.53;;;1.90;;
62556;SDS011;48612;50.742;-1.226;2022-09-20T17:56:29;3.08;;;2.08;;
62556;SDS011;48612;50.742;-1.226;2022-09-20T17:58:59;2.10;;;1.90;;
62556;SDS011;48612;50.742;-1.226;2022-09-20T18:01:26;7.18;;;1.90;;
62556;SDS011;48612;50.742;-1.226;2022-09-20T18:03:54;2.97;;;1.58;;
62556;SDS011;48612;50.742;-1.226;2022-09-20T18:06:28;1.58;;;1.48;;
62556;SDS011;48612;50.742;-1.226;2022-09-20T18:09:00;2.20;;;1.48;;
62556;SDS011;48612;50.742;-1.226;2022-09-20T18:11:32;2.28;;;1.52;;
62556;SDS011;48612;50.742;-1.226;2022-09-20T18:14:02;1.92;;;1.63;;
62556;SDS011;48612;50.742;-1.226;2022-09-20T18:16:28;3.65;;;2.40;;
62556;SDS011;48612;50.742;-1.226;2022-09-20T18:18:57;6.03;;;3.20;;
62556;SDS011;48612;50.742;-1.226;2022-09-20T18:21:24;5.20;;;3.45;;
62556;SDS011;48612;50.742;-1.226;2022-09-20T18:23:52;5.40;;;3.40;;
62556;SDS011;48612;50.742;-1.226;2022-09-20T18:26:20;4.95;;;3.00;;
62556;SDS011;48612;50.742;-1.226;2022-09-20T18:29:05;3.47;;;2.20;;
62556;SDS011;48612;50.742;-1.226;2022-09-20T18:31:44;4.47;;;2.30;;
62556;SDS011;48612;50.742;-1.226;2022-09-20T18:34:11;5.32;;;2.38;;
62556;SDS011;48612;50.742;-1.226;2022-09-20T18:36:51;5.63;;;2.00;;
62556;SDS011;48612;50.742;-1.226;2022-09-20T18:39:22;4.85;;;2.85;;
62556;SDS011;48612;50.742;-1.226;2022-09-20T18:41:49;6.80;;;2.92;;
62556;SDS011;48612;50.742;-1.226;2022-09-20T18:44:17;7.78;;;3.60;;
62556;SDS011;48612;50.742;-1.226;2022-09-20T18:46:46;5.82;;;2.92;;
62556;SDS011;48612;50.742;-1.226;2022-09-20T18:49:12;2.75;;;2.30;;
62556;SDS011;48612;50.742;-1.226;2022-09-20T18:51:40;3.75;;;2.00;;
62556;SDS011;48612;50.742;-1.226;2022-09-20T18:54:15;4.15;;;2.15;;
62556;SDS011;48612;50.742;-1.226;2022-09-20T18:56:43;3.30;;;2.17;;
62556;SDS011;48612;50.742;-1.226;2022-09-20T19:02:02;4.65;;;2.60;;
62556;SDS011;48612;50.742;-1.226;2022-09-20T19:11:03;11.57;;;3.65;;
62556;SDS011;48612;50.742;-1.226;2022-09-20T19:13:44;8.45;;;4.38;;
62556;SDS011;48612;50.742;-1.226;2022-09-20T19:16:28;13.35;;;4.75;;
62556;SDS011;48612;50.742;-1.226;2022-09-20T19:21:55;10.43;;;5.32;;
62556;SDS011;48612;50.742;-1.226;2022-09-20T19:27:11;12.65;;;6.70;;
62556;SDS011;48612;50.742;-1.226;2022-09-20T19:29:38;13.10;;;6.68;;
62556;SDS011;48612;50.742;-1.226;2022-09-20T19:32:05;13.80;;;6.93;;
62556;SDS011;48612;50.742;-1.226;2022-09-20T19:34:41;12.95;;;5.65;;
62556;SDS011;48612;50.742;-1.226;2022-09-20T19:42:44;20.95;;;8.80;;
62556;SDS011;48612;50.742;-1.226;2022-09-20T19:45:38;17.95;;;7.70;;
62556;SDS011;48612;50.742;-1.226;2022-09-20T19:51:10;20.55;;;7.35;;
62556;SDS011;48612;50.742;-1.226;2022-09-20T19:54:04;14.52;;;6.80;;
62556;SDS011;48612;50.742;-1.226;2022-09-20T19:59:23;12.40;;;5.22;;
62556;SDS011;48612;50.742;-1.226;2022-09-20T20:01:52;21.45;;;6.35;;
62556;SDS011;48612;50.742;-1.226;2022-09-20T20:04:20;18.20;;;7.38;;
62556;SDS011;48612;50.742;-1.226;2022-09-20T20:07:00;16.23;;;6.20;;
62556;SDS011;48612;50.742;-1.226;2022-09-20T20:09:51;15.43;;;6.35;;
62556;SDS011;48612;50.742;-1.226;2022-09-20T20:18:07;21.20;;;8.15;;
62556;SDS011;48612;50.742;-1.226;2022-09-20T20:20:49;18.10;;;7.88;;
62556;SDS011;48612;50.742;-1.226;2022-09-20T20:23:32;17.52;;;7.25;;
62556;SDS011;48612;50.742;-1.226;2022-09-20T20:26:33;11.97;;;5.73;;
62556;SDS011;48612;50.742;-1.226;2022-09-20T20:29:00;6.88;;;3.88;;
62556;SDS011;48612;50.742;-1.226;2022-09-20T20:31:29;6.03;;;3.70;;
62556;SDS011;48612;50.742;-1.226;2022-09-20T20:33:55;5.88;;;3.35;;
62556;SDS011;48612;50.742;-1.226;2022-09-20T20:36:20;4.45;;;3.10;;
62556;SDS011;48612;50.742;-1.226;2022-09-20T20:38:46;5.50;;;3.47;;
62556;SDS011;48612;50.742;-1.226;2022-09-20T20:41:16;4.30;;;3.13;;
62556;SDS011;48612;50.742;-1.226;2022-09-20T20:43:45;7.68;;;3.70;;
62556;SDS011;48612;50.742;-1.226;2022-09-20T20:46:12;6.70;;;3.67;;
62556;SDS011;48612;50.742;-1.226;2022-09-20T20:48:41;11.82;;;4.32;;
62556;SDS011;48612;50.742;-1.226;2022-09-20T20:51:09;6.82;;;4.13;;
62556;SDS011;48612;50.742;-1.226;2022-09-20T20:53:37;6.90;;;4.10;;
62556;SDS011;48612;50.742;-1.226;2022-09-20T20:56:09;6.53;;;4.30;;
62556;SDS011;48612;50.742;-1.226;2022-09-20T20:58:42;8.88;;;4.65;;
62556;SDS011;48612;50.742;-1.226;2022-09-20T21:03:42;6.82;;;4.30;;
62556;SDS011;48612;50.742;-1.226;2022-09-20T21:06:13;7.43;;;3.63;;
62556;SDS011;48612;50.742;-1.226;2022-09-20T21:08:41;12.20;;;4.55;;
62556;SDS011;48612;50.742;-1.226;2022-09-20T21:11:10;13.02;;;4.90;;
62556;SDS011;48612;50.742;-1.226;2022-09-20T21:13:57;6.30;;;4.22;;
62556;SDS011;48612;50.742;-1.226;2022-09-20T21:16:27;6.38;;;4.07;;
62556;SDS011;48612;50.742;-1.226;2022-09-20T21:18:55;10.95;;;4.75;;
62556;SDS011;48612;50.742;-1.226;2022-09-20T21:21:24;6.55;;;3.97;;
62556;SDS011;48612;50.742;-1.226;2022-09-20T21:24:18;8.77;;;5.03;;
62556;SDS011;48612;50.742;-1.226;2022-09-20T21:26:44;9.98;;;4.45;;
62556;SDS011;48612;50.742;-1.226;2022-09-20T21:29:11;8.60;;;4.60;;
62556;SDS011;48612;50.742;-1.226;2022-09-20T21:31:40;7.63;;;3.45;;